Sao Bento do Sul, Brazil
Current Conditions -  °F | °C
As of 11:00 PM on Saturday 24 Jan 2015 (Local Time) from SBJV Reporting Station
Broken Clouds Broken Clouds  
Wind Chill: 77°   Ceiling: 3500
Heat Index: 78°   Visibility: 6mi
Dew Point: 73°   Wind: 2mph
Humidity: 89%   Direction: 70°ENE
Pressure: 29.91"   Gusts: NA
Location:  26.25°S, 49.38°W
Report Text: SBJV 250100Z 07002KT 9999 BKN035 25/23 Q1013
Loading
Personal Weather Stations






























Interactive Weather Map New forecast layout! Learn more

10-Day Weather Forecast

Advertisements
Track Severe Weather on mobile